Time;durP1;ratioP1;P1;durP2;ratioP2;P2;SDS_P1;SDS_P2;PMS_P1;PMS_P2;Temp;Humidity;BMP_temperature;BMP_pressure;BME280_temperature;BME280_humidity;BME280_pressure;Samples;Min_cycle;Max_cycle;Signal;HPM_P1;HPM_P2
2023/11/11 00:00:18;;;;;;;3.80;1.50;;;7.90;99.90;;;7.32;100.00;98945.13;5018052;28;20054;-77
2023/11/11 00:02:44;;;;;;;6.05;1.25;;;7.90;99.90;;;7.33;100.00;98947.59;5018857;28;20101;-77
2023/11/11 00:05:10;;;;;;;4.97;1.30;;;7.80;99.90;;;7.30;100.00;98925.56;5022534;28;20040;-77
2023/11/11 00:07:35;;;;;;;8.15;1.80;;;7.80;99.90;;;7.27;100.00;98934.97;5025464;28;20038;-77
2023/11/11 00:10:01;;;;;;;5.80;1.30;;;7.70;99.90;;;7.26;100.00;98930.63;5017981;28;20030;-77
2023/11/11 00:12:27;;;;;;;8.60;1.80;;;7.70;99.90;;;7.17;100.00;98921.19;5016860;28;20033;-77
2023/11/11 00:14:53;;;;;;;4.97;1.52;;;7.70;99.90;;;7.11;100.00;98917.53;5038114;28;20120;-77
2023/11/11 00:17:19;;;;;;;4.30;1.40;;;7.60;99.90;;;7.09;100.00;98916.09;5033263;28;20033;-77
2023/11/11 00:19:45;;;;;;;4.47;1.45;;;7.60;99.90;;;7.10;100.00;98913.19;5014523;28;20120;-78
2023/11/11 00:22:12;;;;;;;8.73;1.70;;;7.60;99.90;;;7.13;100.00;98910.00;5018799;28;20502;-77
2023/11/11 00:24:38;;;;;;;5.80;1.50;;;7.60;99.90;;;7.13;100.00;98898.31;5018520;28;20109;-76
2023/11/11 00:27:05;;;;;;;6.55;1.55;;;7.60;99.90;;;7.04;100.00;98890.53;5041573;28;20310;-77
2023/11/11 00:29:30;;;;;;;7.35;1.67;;;7.60;99.90;;;6.94;100.00;98890.31;5016787;28;20038;-76
2023/11/11 00:31:56;;;;;;;5.35;1.45;;;7.50;99.90;;;6.84;100.00;98890.06;5013900;28;20036;-77
2023/11/11 00:34:22;;;;;;;4.93;1.70;;;7.40;99.90;;;6.87;100.00;98885.00;5030443;28;20038;-78
2023/11/11 00:36:51;;;;;;;6.45;1.40;;;7.40;99.90;;;6.86;100.00;98872.50;5035308;28;20083;-77
2023/11/11 00:39:21;;;;;;;6.85;1.70;;;7.40;99.90;;;6.81;100.00;98871.56;5013729;28;20509;-78
2023/11/11 00:41:46;;;;;;;7.10;1.55;;;7.40;99.90;;;6.87;100.00;98876.03;5027623;28;20069;-78
2023/11/11 00:44:12;;;;;;;6.60;1.75;;;7.40;99.90;;;6.89;100.00;98866.59;5023990;28;20064;-78
2023/11/11 00:46:39;;;;;;;9.30;1.83;;;7.30;99.90;;;6.81;100.00;98877.81;5013983;28;20033;-78
2023/11/11 00:49:08;;;;;;;9.52;1.80;;;7.30;99.90;;;6.81;100.00;98863.41;5017450;28;20073;-77
2023/11/11 00:51:40;;;;;;;;;;;7.40;99.90;;;6.87;100.00;98874.16;5016201;28;20363;-77
2023/11/11 00:54:09;;;;;;;5.97;1.73;;;7.40;99.90;;;6.87;100.00;98879.56;5029026;28;19918;-77
2023/11/11 00:56:39;;;;;;;5.03;1.48;;;7.40;99.90;;;6.89;100.00;98876.63;5020156;28;20045;-78
2023/11/11 00:59:05;;;;;;;6.47;1.80;;;7.40;99.90;;;6.81;100.00;98872.41;5036966;28;20034;-78
2023/11/11 01:01:33;;;;;;;5.53;1.50;;;7.40;99.90;;;6.88;100.00;98878.50;5021788;28;20034;-78
2023/11/11 01:04:03;;;;;;;7.90;1.95;;;7.30;99.90;;;6.83;100.00;98878.41;5021930;28;20056;-79
2023/11/11 01:06:29;;;;;;;4.20;1.92;;;7.30;99.90;;;6.72;100.00;98869.19;5026619;28;20095;-79
2023/11/11 01:08:55;;;;;;;6.50;1.50;;;7.20;99.90;;;6.64;100.00;98869.56;5013750;28;20037;-79
2023/11/11 01:11:21;;;;;;;4.22;1.58;;;7.10;99.90;;;6.46;100.00;98852.34;5029243;28;20397;-79
2023/11/11 01:13:48;;;;;;;5.43;1.55;;;7.00;99.90;;;6.41;100.00;98845.97;5017579;28;20041;-79
2023/11/11 01:16:15;;;;;;;9.18;2.65;;;6.90;99.90;;;6.35;100.00;98847.72;5013481;28;20030;-79
2023/11/11 01:18:41;;;;;;;8.73;2.20;;;6.80;99.90;;;6.27;100.00;98842.63;5033625;28;20044;-79
2023/11/11 01:21:06;;;;;;;4.53;1.67;;;6.80;99.90;;;6.21;100.00;98835.47;5018525;28;20033;-78
2023/11/11 01:23:33;;;;;;;5.88;1.73;;;6.70;99.90;;;6.14;100.00;98816.59;5028834;28;20040;-79
2023/11/11 01:26:02;;;;;;;6.32;1.70;;;6.70;99.90;;;6.21;100.00;98821.91;5012045;28;20030;-78
2023/11/11 01:28:29;;;;;;;7.22;1.95;;;6.70;99.90;;;6.17;100.00;98816.13;5018923;28;20033;-78
2023/11/11 01:30:55;;;;;;;7.07;1.90;;;6.70;99.90;;;6.15;100.00;98813.66;5013431;28;20065;-79
2023/11/11 01:33:22;;;;;;;4.10;1.67;;;6.70;99.90;;;6.16;100.00;98809.06;5020901;28;20148;-79
2023/11/11 01:35:51;;;;;;;6.85;1.70;;;6.60;99.90;;;6.10;100.00;98801.88;5016642;28;20052;-79
2023/11/11 01:38:19;;;;;;;7.75;2.60;;;6.60;99.90;;;6.03;100.00;98796.56;5018939;28;20041;-79
2023/11/11 01:40:46;;;;;;;10.23;1.88;;;6.50;99.90;;;6.03;100.00;98804.69;5025252;28;20175;-79
2023/11/11 01:43:15;;;;;;;7.57;1.92;;;6.50;99.90;;;5.98;100.00;98797.25;5018400;28;20037;-79
2023/11/11 01:45:43;;;;;;;7.80;1.67;;;6.40;99.90;;;5.92;100.00;98779.19;5012917;28;20042;-79
2023/11/11 01:48:14;;;;;;;7.15;1.90;;;6.40;99.90;;;5.93;100.00;98777.34;5012551;28;20042;-79
2023/11/11 01:50:44;;;;;;;6.72;1.77;;;6.40;99.90;;;5.95;100.00;98783.34;5015887;28;20068;-79
2023/11/11 01:53:14;;;;;;;6.55;1.80;;;6.40;99.90;;;5.86;100.00;98780.97;5025329;28;20408;-79
2023/11/11 01:55:40;;;;;;;6.90;1.80;;;6.30;99.90;;;5.84;100.00;98782.25;5015758;28;20141;-79
2023/11/11 01:58:06;;;;;;;6.10;1.83;;;6.20;99.90;;;5.78;100.00;98781.28;5026958;28;20120;-79
2023/11/11 02:00:36;;;;;;;6.45;1.88;;;6.20;99.90;;;5.74;100.00;98782.81;5028787;28;20132;-78
2023/11/11 02:03:06;;;;;;;8.00;2.00;;;6.10;99.90;;;5.65;100.00;98779.59;5013936;28;20052;-78
2023/11/11 02:05:32;;;;;;;6.57;1.90;;;6.00;99.90;;;5.58;100.00;98771.59;5015532;28;20088;-79
2023/11/11 02:08:02;;;;;;;4.18;1.65;;;6.00;99.90;;;5.57;100.00;98772.66;5031241;28;20041;-79
2023/11/11 02:10:29;;;;;;;7.38;1.70;;;6.00;99.90;;;5.48;100.00;98771.31;5025936;28;20021;-79
2023/11/11 02:12:56;;;;;;;9.88;2.17;;;5.90;99.90;;;5.43;100.00;98769.28;5027605;28;20037;-79
2023/11/11 02:15:22;;;;;;;8.23;2.30;;;5.80;99.90;;;5.40;100.00;98761.63;5014058;28;20125;-79
2023/11/11 02:17:53;;;;;;;7.10;1.92;;;5.80;99.90;;;5.43;100.00;98760.38;5012344;28;20775;-79
2023/11/11 02:20:20;;;;;;;9.23;2.13;;;5.80;99.90;;;5.37;100.00;98755.88;5014419;28;20122;-79
2023/11/11 02:22:46;;;;;;;6.93;2.10;;;5.80;99.90;;;5.29;100.00;98747.00;5038467;28;20049;-79
2023/11/11 02:25:12;;;;;;;6.93;2.00;;;5.70;99.90;;;5.37;100.00;98747.75;5013835;28;20029;-79
2023/11/11 02:27:38;;;;;;;6.97;1.85;;;5.80;99.90;;;5.33;100.00;98740.13;5021378;28;20032;-79
2023/11/11 02:30:10;;;;;;;9.55;2.40;;;5.80;99.90;;;5.40;100.00;98736.47;5016659;28;20037;-79
2023/11/11 02:32:37;;;;;;;5.63;2.13;;;5.80;99.90;;;5.44;100.00;98729.56;5030576;28;20378;-78
2023/11/11 02:35:04;;;;;;;7.03;2.00;;;5.80;99.90;;;5.47;100.00;98732.63;5032196;28;20504;-79
2023/11/11 02:37:29;;;;;;;9.20;2.80;;;5.80;99.90;;;5.50;100.00;98720.50;5018253;28;20500;-79
2023/11/11 02:39:55;;;;;;;3.50;1.88;;;5.90;99.90;;;5.59;100.00;98724.56;5014923;28;20296;-79
2023/11/11 02:42:21;;;;;;;6.30;1.80;;;5.90;99.90;;;5.65;100.00;98721.97;5015920;28;20085;-78
2023/11/11 02:44:47;;;;;;;10.23;2.30;;;6.00;99.90;;;5.66;100.00;98718.22;5019371;28;20132;-79
2023/11/11 02:47:13;;;;;;;7.13;2.10;;;6.00;99.90;;;5.71;100.00;98718.34;5016390;28;20389;-78
2023/11/11 02:49:38;;;;;;;7.55;1.95;;;6.10;99.90;;;5.77;100.00;98717.41;5020101;28;20045;-78
2023/11/11 02:52:04;;;;;;;5.18;1.98;;;6.10;99.90;;;5.82;100.00;98731.06;5016807;28;20034;-78
2023/11/11 02:54:31;;;;;;;5.97;2.15;;;6.20;99.90;;;5.81;100.00;98725.88;5012222;28;20064;-79
2023/11/11 02:56:56;;;;;;;7.43;2.90;;;6.20;99.90;;;5.86;100.00;98732.25;5016937;28;20042;-79
2023/11/11 02:59:23;;;;;;;5.10;1.88;;;6.20;99.90;;;5.88;100.00;98737.41;5014785;28;20050;-79
2023/11/11 03:01:50;;;;;;;5.32;2.22;;;6.30;99.90;;;5.91;100.00;98747.78;5014920;28;20092;-79
2023/11/11 03:04:16;;;;;;;6.05;2.03;;;6.30;99.90;;;5.92;100.00;98743.22;5015531;28;20078;-78
2023/11/11 03:06:42;;;;;;;6.60;2.10;;;6.30;99.90;;;5.93;100.00;98750.28;5011648;28;20053;-79
2023/11/11 03:09:09;;;;;;;6.85;2.47;;;6.30;99.90;;;5.92;100.00;98748.63;5011874;28;20083;-80
2023/11/11 03:11:37;;;;;;;7.75;2.03;;;6.30;99.90;;;5.94;100.00;98754.63;5011692;28;20038;-80
2023/11/11 03:14:03;;;;;;;6.17;2.00;;;6.30;99.90;;;5.95;100.00;98761.69;5027100;28;20042;-80
2023/11/11 03:16:37;;;;;;;5.78;2.13;;;6.30;99.90;;;5.96;100.00;98763.34;5011737;28;20449;-80
2023/11/11 03:19:04;;;;;;;4.03;1.90;;;6.30;99.90;;;5.95;100.00;98753.56;5016953;28;20040;-81
2023/11/11 03:21:31;;;;;;;4.37;1.87;;;6.30;99.90;;;5.96;100.00;98764.13;5024221;28;20471;-81
2023/11/11 03:23:57;;;;;;;8.05;2.75;;;6.30;99.90;;;5.95;100.00;98756.28;5016178;28;20113;-81
2023/11/11 03:26:24;;;;;;;7.50;2.28;;;6.40;99.90;;;5.94;100.00;98757.34;5016042;28;20034;-81
2023/11/11 03:28:50;;;;;;;6.05;2.03;;;6.40;99.90;;;5.93;100.00;98751.06;5011672;28;20120;-80
2023/11/11 03:31:19;;;;;;;4.38;1.92;;;6.40;99.90;;;5.92;100.00;98744.00;5003879;28;20033;-81
2023/11/11 03:33:46;;;;;;;4.32;2.35;;;6.40;99.90;;;5.94;100.00;98746.50;5034590;28;20504;-82
2023/11/11 03:36:13;;;;;;;5.35;2.20;;;6.40;99.90;;;5.89;100.00;98739.06;5014759;28;20034;-82
2023/11/11 03:38:38;;;;;;;7.47;2.50;;;6.40;99.90;;;5.90;100.00;98741.56;5016795;28;20124;-81
2023/11/11 03:41:05;;;;;;;4.38;2.22;;;6.40;99.90;;;5.86;100.00;98734.97;5014846;28;20494;-81
2023/11/11 03:43:31;;;;;;;5.28;2.22;;;6.30;99.90;;;5.88;100.00;98732.84;5016780;28;20122;-81
2023/11/11 03:45:58;;;;;;;5.55;2.10;;;6.30;99.90;;;5.84;100.00;98720.00;5017500;28;20033;-83
2023/11/11 03:48:25;;;;;;;7.88;2.67;;;6.30;99.90;;;5.83;100.00;98715.66;5030846;28;20117;-82
2023/11/11 03:50:51;;;;;;;7.00;2.90;;;6.30;99.90;;;5.83;100.00;98719.16;5013412;28;20033;-84
2023/11/11 03:53:17;;;;;;;7.00;2.40;;;6.30;99.90;;;5.83;100.00;98711.06;5024092;28;20176;-83
2023/11/11 03:55:43;;;;;;;6.72;2.47;;;6.30;99.90;;;5.84;100.00;98698.34;5010030;28;20786;-84
2023/11/11 03:58:09;;;;;;;7.50;2.17;;;6.30;99.90;;;5.85;100.00;98700.00;5026435;28;20034;-84
2023/11/11 04:00:35;;;;;;;6.28;2.33;;;6.30;99.90;;;5.82;100.00;98693.16;5017158;28;20053;-84
2023/11/11 04:03:00;;;;;;;8.30;2.75;;;6.30;99.90;;;5.85;100.00;98695.44;5037273;28;20034;-85
2023/11/11 04:05:27;;;;;;;6.97;2.77;;;6.30;99.90;;;5.83;100.00;98681.28;5020265;28;20046;-86
2023/11/11 04:07:53;;;;;;;7.13;2.50;;;6.30;99.90;;;5.80;100.00;98679.03;5013900;28;20037;-85
2023/11/11 04:10:23;;;;;;;7.43;2.97;;;6.30;99.90;;;5.82;100.00;98679.63;5026171;28;20029;-85
2023/11/11 04:12:48;;;;;;;7.40;2.80;;;6.30;99.90;;;5.76;100.00;98675.16;5021611;28;20042;-86
2023/11/11 04:15:14;;;;;;;8.18;3.08;;;6.30;99.90;;;5.79;100.00;98676.59;5026369;28;20033;-86
2023/11/11 04:17:44;;;;;;;12.18;2.92;;;6.30;99.90;;;5.78;100.00;98672.25;5030270;28;20144;-86
2023/11/11 04:20:13;;;;;;;5.40;2.55;;;6.30;99.90;;;5.76;100.00;98658.94;5019541;28;20061;-85
2023/11/11 04:22:41;;;;;;;5.93;2.72;;;6.20;99.90;;;5.81;100.00;98663.66;5034837;28;20034;-87
2023/11/11 04:25:09;;;;;;;10.15;2.88;;;6.20;99.90;;;5.78;100.00;98648.69;5031018;28;20038;-86
2023/11/11 04:27:35;;;;;;;7.28;2.67;;;6.20;99.90;;;5.83;100.00;98659.63;5029615;28;20043;-87
2023/11/11 04:30:03;;;;;;;8.27;3.03;;;6.30;99.90;;;5.78;100.00;98637.06;5012325;28;20049;-87
2023/11/11 04:32:30;;;;;;;9.00;2.80;;;6.30;99.90;;;5.80;100.00;98634.94;5016465;28;20069;-86
2023/11/11 04:34:55;;;;;;;8.10;3.05;;;6.30;99.90;;;5.81;100.00;98640.09;5022334;28;20038;-88
2023/11/11 04:37:21;;;;;;;7.57;3.22;;;6.30;99.90;;;5.84;100.00;98644.22;5026928;28;20040;-88
2023/11/11 04:39:47;;;;;;;8.48;3.17;;;6.30;99.90;;;5.78;100.00;98629.75;5020702;28;20045;-89
2023/11/11 04:42:17;;;;;;;11.32;2.95;;;6.30;99.90;;;5.83;100.00;98624.44;5021008;28;20033;-87
2023/11/11 04:44:44;;;;;;;12.77;3.00;;;6.40;99.90;;;5.81;100.00;98602.22;5032157;28;20142;-87
2023/11/11 04:47:10;;;;;;;10.00;3.42;;;6.40;99.90;;;5.75;100.00;98600.47;5021884;28;20056;-86
2023/11/11 04:49:37;;;;;;;5.22;2.28;;;6.40;99.90;;;5.81;100.00;98599.50;5014341;28;20143;-86
2023/11/11 04:52:07;;;;;;;5.63;2.33;;;6.40;99.90;;;5.80;100.00;98597.88;5018672;28;20176;-87
2023/11/11 04:54:33;;;;;;;5.88;1.77;;;6.30;99.90;;;5.72;100.00;98590.94;5019896;28;20140;-86
2023/11/11 04:57:02;;;;;;;5.43;1.73;;;6.30;99.90;;;5.66;100.00;98594.56;5019185;28;20073;-87
2023/11/11 04:59:28;;;;;;;4.50;1.88;;;6.20;99.90;;;5.61;100.00;98589.03;5019038;28;20126;-87
2023/11/11 05:01:54;;;;;;;8.00;1.63;;;6.20;99.90;;;5.54;100.00;98594.56;5024914;28;20465;-87
2023/11/11 05:04:22;;;;;;;4.38;1.00;;;6.20;99.90;;;5.46;100.00;98593.03;5029380;28;20037;-86
2023/11/11 05:06:48;;;;;;;2.75;1.25;;;6.10;99.90;;;5.46;100.00;98608.44;5022328;28;20045;-86
2023/11/11 05:09:15;;;;;;;4.70;2.05;;;6.10;99.90;;;5.33;100.00;98599.50;5024940;28;20390;-86
2023/11/11 05:11:41;;;;;;;4.80;2.40;;;6.10;99.90;;;5.41;100.00;98602.91;5023277;28;20044;-86
2023/11/11 05:14:12;;;;;;;4.55;2.60;;;6.10;99.90;;;5.40;100.00;98596.66;5028114;28;20030;-87
2023/11/11 05:16:44;;;;;;;4.13;2.22;;;6.10;99.90;;;5.32;100.00;98605.13;5035164;28;20025;-85
2023/11/11 05:19:11;;;;;;;5.68;2.28;;;6.10;99.90;;;5.33;100.00;98617.59;5013347;28;20064;-82
2023/11/11 05:21:38;;;;;;;4.18;2.10;;;6.00;99.90;;;5.19;100.00;98644.00;5018917;28;20037;-85
2023/11/11 05:24:05;;;;;;;5.60;2.15;;;5.90;99.90;;;5.18;100.00;98653.16;5023594;28;20061;-86
2023/11/11 05:26:31;;;;;;;3.13;1.73;;;5.90;99.90;;;5.01;100.00;98659.22;5015506;28;20390;-84
2023/11/11 05:28:57;;;;;;;2.60;1.40;;;5.80;99.90;;;4.95;100.00;98681.75;5012281;28;20305;-84
2023/11/11 05:31:25;;;;;;;3.40;2.00;;;5.80;99.90;;;4.98;100.00;98692.09;5021876;28;20036;-84
2023/11/11 05:33:51;;;;;;;3.70;1.90;;;5.80;99.90;;;4.98;100.00;98689.41;5019473;28;20068;-83
2023/11/11 05:36:19;;;;;;;4.20;2.03;;;5.80;99.90;;;4.98;100.00;98684.00;5028842;28;20088;-84
2023/11/11 05:38:47;;;;;;;3.58;2.10;;;5.80;99.90;;;5.02;100.00;98662.75;5012884;28;20042;-84
2023/11/11 05:41:14;;;;;;;4.43;2.00;;;5.80;99.90;;;5.04;100.00;98661.47;5042182;28;20034;-84
2023/11/11 05:43:40;;;;;;;5.10;2.42;;;5.80;99.90;;;5.07;100.00;98640.44;5017884;28;20033;-85
2023/11/11 05:46:08;;;;;;;7.00;2.13;;;5.80;99.90;;;5.10;100.00;98646.19;5032227;28;20029;-85
2023/11/11 05:48:37;;;;;;;6.18;2.00;;;5.80;99.90;;;5.11;100.00;98657.84;5017645;28;20034;-85
2023/11/11 05:51:08;;;;;;;3.53;1.85;;;5.90;99.90;;;5.11;100.00;98664.06;5013088;28;20110;-85
2023/11/11 05:53:35;;;;;;;2.63;1.30;;;5.90;99.90;;;5.05;100.00;98681.22;5012763;28;20034;-84
2023/11/11 05:56:02;;;;;;;1.92;1.20;;;5.90;99.90;;;5.05;100.00;98700.13;5017567;28;20103;-84
2023/11/11 05:58:27;;;;;;;3.08;1.00;;;5.90;99.90;;;5.00;100.00;98722.44;5018502;28;20033;-84
2023/11/11 06:00:53;;;;;;;3.03;1.15;;;5.90;99.90;;;4.97;100.00;98739.09;5014858;28;20046;-84
2023/11/11 06:03:19;;;;;;;2.63;1.00;;;5.90;99.90;;;5.06;100.00;98776.66;5020981;28;20485;-85
2023/11/11 06:05:45;;;;;;;1.98;0.98;;;5.90;99.90;;;4.98;100.00;98784.00;5011829;28;20088;-82
2023/11/11 06:08:11;;;;;;;1.77;0.85;;;5.90;99.90;;;5.02;100.00;98789.78;5017660;28;20054;-82
2023/11/11 06:10:38;;;;;;;2.03;1.05;;;5.80;99.90;;;4.97;100.00;98782.34;5037500;28;20033;-83
2023/11/11 06:13:07;;;;;;;2.47;1.15;;;5.80;99.90;;;5.03;100.00;98796.84;5014932;28;20148;-83
2023/11/11 06:15:35;;;;;;;2.50;1.13;;;5.80;99.90;;;5.03;100.00;98792.25;5013705;28;20104;-86
2023/11/11 06:18:03;;;;;;;2.97;1.20;;;5.80;99.90;;;5.09;100.00;98792.41;5017959;28;20065;-84
2023/11/11 06:20:33;;;;;;;2.00;1.00;;;5.70;99.90;;;5.06;100.00;98795.56;5028119;28;20528;-85
2023/11/11 06:22:59;;;;;;;2.28;1.13;;;5.70;99.90;;;5.09;100.00;98795.94;5039829;28;20040;-87
2023/11/11 06:25:25;;;;;;;3.83;1.30;;;5.70;99.90;;;5.06;100.00;98784.75;5017853;28;20063;-88
2023/11/11 06:27:54;;;;;;;2.25;1.30;;;5.70;99.90;;;5.10;100.00;98783.25;5017447;28;20545;-85
2023/11/11 06:30:20;;;;;;;2.45;1.30;;;5.70;99.90;;;5.11;100.00;98780.31;5026395;28;20037;-86
2023/11/11 06:32:46;;;;;;;3.03;1.30;;;5.70;99.90;;;5.12;100.00;98778.44;5018479;28;20041;-85
2023/11/11 06:35:12;;;;;;;2.53;1.20;;;5.70;99.90;;;5.09;100.00;98765.38;5013758;28;20030;-87
2023/11/11 06:37:40;;;;;;;2.03;1.25;;;5.70;99.90;;;5.15;100.00;98767.97;5018413;28;20367;-88
2023/11/11 06:40:07;;;;;;;6.63;1.77;;;5.70;99.90;;;5.17;100.00;98767.78;5014534;28;20117;-88
2023/11/11 06:42:33;;;;;;;3.80;1.63;;;5.80;99.90;;;5.19;100.00;98765.66;5013324;28;20029;-86
2023/11/11 06:44:59;;;;;;;4.32;1.60;;;5.80;99.90;;;5.18;100.00;98756.75;5020144;28;20037;-86
2023/11/11 06:47:25;;;;;;;4.32;1.67;;;5.80;99.90;;;5.19;100.00;98752.16;5021484;28;20048;-87
2023/11/11 06:49:51;;;;;;;3.67;1.48;;;5.80;99.90;;;5.21;100.00;98744.63;5029712;28;20036;-87
2023/11/11 06:52:17;;;;;;;2.90;1.33;;;5.80;99.90;;;5.24;100.00;98738.75;5017846;28;20030;-87
2023/11/11 06:54:43;;;;;;;3.22;1.70;;;5.80;99.90;;;5.28;100.00;98745.34;5020035;28;20409;-88
2023/11/11 06:57:09;;;;;;;3.50;1.55;;;5.90;99.90;;;5.33;100.00;98759.03;5026387;28;20435;-89
2023/11/11 06:59:37;;;;;;;4.20;1.70;;;5.90;99.90;;;5.31;100.00;98755.75;5027802;28;20580;-85
2023/11/11 07:02:05;;;;;;;2.85;1.33;;;5.90;99.90;;;5.34;100.00;98743.63;5024111;28;20041;-84
2023/11/11 07:04:32;;;;;;;;;;;5.90;99.90;;;5.35;100.00;98747.16;5024302;28;20046;-84
2023/11/11 07:06:58;;;;;;;5.82;1.70;;;5.90;99.90;;;5.41;100.00;98738.13;5027299;28;20337;-89
2023/11/11 07:09:24;;;;;;;3.45;1.85;;;5.90;99.90;;;5.42;100.00;98750.59;5017506;28;20116;-88
2023/11/11 07:11:50;;;;;;;3.53;1.50;;;6.00;99.90;;;5.35;100.00;98745.28;5026651;28;20029;-88
2023/11/11 07:14:15;;;;;;;5.82;1.65;;;6.00;99.90;;;5.39;100.00;98751.06;5026830;28;20204;-87
2023/11/11 07:16:41;;;;;;;3.95;1.67;;;6.00;99.90;;;5.40;100.00;98752.72;5029150;28;20552;-84
2023/11/11 07:19:07;;;;;;;5.10;1.80;;;6.00;99.90;;;5.37;100.00;98735.06;5022700;28;20030;-85
2023/11/11 07:21:34;;;;;;;4.88;1.75;;;6.00;99.90;;;5.36;100.00;98736.09;5026321;28;20033;-85
2023/11/11 07:23:59;;;;;;;5.50;1.92;;;6.00;99.90;;;5.36;100.00;98749.63;5022642;28;20055;-83
2023/11/11 07:26:25;;;;;;;4.15;1.77;;;6.00;99.90;;;5.31;100.00;98742.22;5020835;28;20541;-85
2023/11/11 07:28:52;;;;;;;3.70;1.88;;;6.00;99.90;;;5.38;100.00;98742.09;5012966;28;20057;-84
2023/11/11 07:31:19;;;;;;;5.60;2.00;;;6.00;99.90;;;5.38;100.00;98736.69;5033203;28;20045;-82
2023/11/11 07:33:46;;;;;;;5.00;1.90;;;6.00;99.90;;;5.40;100.00;98736.47;5039159;28;20104;-83
2023/11/11 07:36:12;;;;;;;3.70;2.03;;;6.00;99.90;;;5.39;100.00;98735.66;5027228;28;20030;-85
2023/11/11 07:38:40;;;;;;;7.22;2.70;;;6.00;99.90;;;5.29;100.00;98735.38;5022895;28;20367;-84
2023/11/11 07:41:07;;;;;;;7.57;2.63;;;6.00;99.90;;;5.33;100.00;98720.34;5016464;28;20034;-86
2023/11/11 07:43:35;;;;;;;7.72;2.78;;;6.00;99.90;;;5.44;100.00;98729.56;5019544;28;20034;-86
2023/11/11 07:46:06;;;;;;;8.43;3.40;;;6.10;99.90;;;5.38;100.00;98736.69;5000605;28;20048;-86
2023/11/11 07:48:35;;;;;;;8.55;3.90;;;6.00;99.90;;;5.39;100.00;98708.59;5014192;28;20038;-84
2023/11/11 07:51:05;;;;;;;9.63;3.97;;;6.10;99.90;;;5.43;100.00;98714.38;5031412;28;20108;-84
2023/11/11 07:53:31;;;;;;;11.27;5.55;;;6.10;99.90;;;5.54;100.00;98721.69;5023520;28;20207;-86
2023/11/11 07:56:00;;;;;;;16.35;7.65;;;6.10;99.90;;;5.58;100.00;98709.38;5025484;28;20477;-82
2023/11/11 07:58:26;;;;;;;23.45;9.90;;;6.20;99.90;;;5.65;100.00;98705.75;5030187;28;20045;-82
2023/11/11 08:00:51;;;;;;;22.58;10.18;;;6.30;99.90;;;5.74;100.00;98698.94;5028776;28;20437;-83
2023/11/11 08:03:18;;;;;;;27.48;11.95;;;6.40;99.90;;;5.75;100.00;98700.56;5017029;28;20385;-88
2023/11/11 08:05:44;;;;;;;25.88;11.63;;;6.50;99.90;;;5.78;100.00;98702.81;5024254;28;20049;-84
2023/11/11 08:08:10;;;;;;;27.33;12.80;;;6.50;99.90;;;5.87;100.00;98706.84;5016391;28;20029;-84
2023/11/11 08:10:36;;;;;;;24.77;12.02;;;6.60;99.90;;;5.85;100.00;98700.84;5021753;28;20072;-88
2023/11/11 08:13:04;;;;;;;24.95;11.20;;;6.60;99.90;;;5.81;100.00;98709.66;5017979;28;20065;-87
2023/11/11 08:15:30;;;;;;;23.90;10.43;;;6.60;99.90;;;5.89;100.00;98726.38;5033864;28;20029;-85
2023/11/11 08:17:56;;;;;;;20.90;10.05;;;6.60;99.90;;;5.88;100.00;98738.25;5015403;28;20346;-84
2023/11/11 08:20:23;;;;;;;14.95;7.80;;;6.70;99.90;;;5.86;100.00;98759.31;5028752;28;20033;-87
2023/11/11 08:22:49;;;;;;;17.20;9.13;;;6.70;99.90;;;5.95;100.00;98777.94;5023233;28;20583;-86
2023/11/11 08:25:16;;;;;;;17.05;8.32;;;6.70;99.90;;;5.88;100.00;98786.13;5015862;28;20042;-86
2023/11/11 08:27:43;;;;;;;16.30;8.10;;;6.70;99.90;;;6.03;100.00;98816.34;5023176;28;20037;-87
2023/11/11 08:30:11;;;;;;;13.23;7.32;;;6.70;99.90;;;6.04;100.00;98828.00;5018878;28;20050;-86
2023/11/11 08:32:39;;;;;;;14.67;7.30;;;6.70;99.90;;;6.00;100.00;98859.25;5028232;28;20079;-85
2023/11/11 08:35:08;;;;;;;13.00;6.47;;;6.70;99.90;;;6.02;100.00;98881.53;5021083;28;20049;-86
2023/11/11 08:37:34;;;;;;;13.07;6.53;;;6.80;99.90;;;6.06;100.00;98893.56;5036112;28;20029;-85
2023/11/11 08:40:06;;;;;;;13.48;6.18;;;6.80;99.90;;;6.11;100.00;98901.00;5037316;28;20077;-88
2023/11/11 08:42:32;;;;;;;12.60;5.97;;;6.80;99.90;;;6.10;100.00;98919.16;5020153;28;20347;-86
2023/11/11 08:44:58;;;;;;;9.73;5.45;;;6.80;99.90;;;6.20;100.00;98945.66;5035451;28;20042;-85
2023/11/11 08:47:25;;;;;;;8.05;4.57;;;6.80;99.90;;;6.21;100.00;98955.41;5027435;28;20040;-85
2023/11/11 08:49:52;;;;;;;7.63;4.05;;;6.90;99.90;;;6.21;100.00;98968.97;5033781;28;20045;-87
2023/11/11 08:52:18;;;;;;;8.97;4.20;;;6.90;99.90;;;6.36;100.00;98979.38;5040149;28;20071;-86
2023/11/11 08:54:43;;;;;;;7.82;3.67;;;7.00;99.90;;;6.33;100.00;99001.50;5031764;28;20038;-87
2023/11/11 08:57:11;;;;;;;6.20;3.00;;;7.00;99.90;;;6.32;100.00;99032.34;5020437;28;20413;-85
2023/11/11 08:59:37;;;;;;;7.55;2.72;;;7.00;99.90;;;6.04;100.00;99007.50;5037831;28;20033;-88
2023/11/11 09:02:03;;;;;;;6.55;3.20;;;7.00;99.90;;;6.37;100.00;99048.78;5029991;28;20030;-87
2023/11/11 09:04:29;;;;;;;6.90;2.83;;;7.00;99.90;;;6.39;100.00;99060.22;5020572;28;20179;-84
2023/11/11 09:06:56;;;;;;;5.50;2.97;;;7.10;99.90;;;6.26;100.00;99074.75;5020667;28;20042;-82
2023/11/11 09:09:22;;;;;;;7.07;2.67;;;7.10;99.90;;;6.24;100.00;99074.16;5014660;28;20470;-88
2023/11/11 09:11:48;;;;;;;6.50;2.15;;;7.10;99.90;;;6.39;100.00;99094.59;5026338;28;20129;-88
2023/11/11 09:14:13;;;;;;;4.63;1.88;;;7.10;99.90;;;6.37;100.00;99091.28;5023748;28;20038;-85
2023/11/11 09:16:39;;;;;;;3.35;1.75;;;7.10;99.90;;;6.41;100.00;99119.56;5017853;28;20049;-85
2023/11/11 09:19:05;;;;;;;5.35;1.90;;;7.10;99.90;;;6.51;100.00;99119.03;5014447;28;20049;-85
2023/11/11 09:21:31;;;;;;;2.78;1.50;;;7.20;99.90;;;6.52;100.00;99132.38;5018847;28;20088;-84
2023/11/11 09:23:58;;;;;;;3.88;1.60;;;7.20;99.90;;;6.58;100.00;99141.44;5028798;28;20037;-89
2023/11/11 09:26:24;;;;;;;3.60;1.58;;;7.30;99.90;;;6.59;100.00;99146.66;5022614;28;20030;-87
2023/11/11 09:28:50;;;;;;;4.35;1.77;;;7.30;99.90;;;6.62;100.00;99150.78;5023306;28;20053;-86
2023/11/11 09:31:16;;;;;;;4.90;1.60;;;7.30;99.90;;;6.67;100.00;99156.38;5028166;28;20076;-84
2023/11/11 09:33:45;;;;;;;3.70;1.95;;;7.30;99.90;;;6.57;100.00;99156.91;5023996;28;20037;-87
2023/11/11 09:36:11;;;;;;;6.00;1.67;;;7.20;99.90;;;6.44;100.00;99146.19;5027962;28;20083;-88
2023/11/11 09:38:37;;;;;;;3.60;1.80;;;7.10;99.90;;;6.33;100.00;99153.19;5017670;28;20040;-86
2023/11/11 09:41:05;;;;;;;5.15;2.17;;;7.10;99.90;;;6.40;100.00;99153.13;5015327;28;20038;-87
2023/11/11 09:43:31;;;;;;;4.30;1.92;;;7.10;99.90;;;6.52;100.00;99143.19;5019674;28;20474;-84
2023/11/11 09:46:02;;;;;;;7.63;2.33;;;7.20;99.90;;;6.67;100.00;99145.53;5032252;28;20037;-92
2023/11/11 09:48:31;;;;;;;5.20;2.58;;;7.30;99.90;;;6.74;100.00;99151.69;5025951;28;20034;-85
2023/11/11 09:50:57;;;;;;;4.72;2.30;;;7.40;99.90;;;6.88;100.00;99157.75;5016047;28;20187;-86
2023/11/11 09:53:25;;;;;;;3.97;2.28;;;7.50;99.90;;;6.97;100.00;99170.97;5020731;28;20496;-89
2023/11/11 09:55:52;;;;;;;;;;;7.50;99.90;;;6.97;100.00;99182.66;5021194;28;20112;-89
2023/11/11 09:58:19;;;;;;;5.35;2.20;;;7.60;99.90;;;7.07;100.00;99197.56;5020433;28;19925;-89
2023/11/11 10:00:45;;;;;;;5.32;2.00;;;7.70;99.90;;;7.14;100.00;99209.97;5021521;28;20061;-88
2023/11/11 10:03:13;;;;;;;3.78;1.98;;;7.80;99.90;;;7.13;100.00;99234.59;5027361;28;20041;-86
2023/11/11 10:05:38;;;;;;;8.38;2.15;;;7.90;99.90;;;7.09;100.00;99244.25;5030029;28;20042;-88
2023/11/11 10:08:07;;;;;;;4.18;1.90;;;7.90;99.90;;;7.20;100.00;99268.72;5014021;28;20352;-87
2023/11/11 10:10:34;;;;;;;5.05;2.10;;;7.90;99.90;;;7.05;100.00;99258.28;5027069;28;20049;-87
2023/11/11 10:13:00;;;;;;;5.33;2.07;;;8.00;99.90;;;7.07;100.00;99273.50;5019113;28;20063;-87
2023/11/11 10:15:26;;;;;;;4.50;1.83;;;7.90;99.90;;;7.02;100.00;99272.28;5032145;28;20478;-83
2023/11/11 10:17:52;;;;;;;4.65;2.10;;;7.90;99.90;;;7.10;100.00;99281.16;5021565;28;20046;-87
2023/11/11 10:20:18;;;;;;;6.30;2.08;;;7.80;99.90;;;7.21;100.00;99280.41;5031599;28;20091;-88
2023/11/11 10:22:48;;;;;;;3.92;1.88;;;7.90;99.90;;;7.31;100.00;99277.16;5031202;28;20033;-87